Time;durP1;ratioP1;P1;durP2;ratioP2;P2;SDS_P1;SDS_P2;PMS_P1;PMS_P2;Temp;Humidity;BMP_temperature;BMP_pressure;BME280_temperature;BME280_humidity;BME280_pressure;Samples;Min_cycle;Max_cycle;Signal;HPM_P1;HPM_P2
2022/02/04 00:10:00;;;;;;;11.30;10.27;;;4.40;99.90;;;5.19;100.00;97752.72;5174824;28;20725;-67
2022/02/04 00:21:24;;;;;;;11.27;10.17;;;4.60;99.90;;;5.32;100.00;97764.66;5184226;28;20579;-67
2022/02/04 00:24:01;;;;;;;11.70;10.70;;;4.60;99.90;;;5.33;100.00;97754.66;5183518;28;20222;-67
2022/02/04 00:26:38;;;;;;;10.40;9.40;;;4.60;99.90;;;5.32;100.00;97764.66;5182705;28;20235;-67
2022/02/04 00:29:17;;;;;;;10.83;9.83;;;4.50;99.90;;;5.35;100.00;97765.81;5179829;28;20218;-67
2022/02/04 00:31:53;;;;;;;11.70;10.60;;;4.60;99.90;;;5.46;100.00;97763.16;5185360;28;20222;-67
2022/02/04 00:34:34;;;;;;;11.60;10.60;;;4.60;99.90;;;5.46;100.00;97765.69;5182778;28;20221;-66
2022/02/04 00:37:19;;;;;;;10.43;9.43;;;4.70;99.90;;;5.43;100.00;97767.22;5184392;28;20226;-67
2022/02/04 00:39:57;;;;;;;10.97;9.87;;;4.70;99.90;;;5.49;100.00;97763.41;5186065;28;20248;-67
2022/02/04 00:42:30;;;;;;;12.03;10.83;;;4.70;99.90;;;5.44;100.00;97770.69;5183132;28;20613;-67
2022/02/04 00:45:17;;;;;;;11.40;10.43;;;4.70;99.90;;;5.48;100.00;97771.78;5175012;28;20257;-67
2022/02/04 00:48:25;;;;;;;11.70;10.60;;;4.70;99.90;;;5.50;100.00;97770.25;5184022;28;20225;-67
2022/02/04 00:51:03;;;;;;;14.77;13.43;;;4.80;99.90;;;5.47;100.00;97775.09;5180334;28;20232;-67
2022/02/04 00:53:46;;;;;;;14.57;13.17;;;4.80;99.90;;;5.52;100.00;97773.75;5180892;28;20230;-67
2022/02/04 00:56:26;;;;;;;14.50;13.10;;;4.80;99.90;;;5.56;100.00;97779.19;5180890;28;20231;-67
2022/02/04 01:13:39;;;;;;;15.30;13.90;;;5.10;99.90;;;5.84;100.00;97782.13;5180854;28;20599;-69
2022/02/04 01:27:36;;;;;;;15.20;13.77;;;5.20;99.90;;;5.99;100.00;97784.06;5186100;28;20763;-67
2022/02/04 01:30:19;;;;;;;16.37;14.83;;;5.30;99.90;;;6.04;100.00;97782.75;5186744;28;20211;-67
2022/02/04 01:32:52;;;;;;;16.17;14.57;;;5.30;99.90;;;6.21;100.00;97776.31;5187658;28;20776;-66
2022/02/04 01:35:27;;;;;;;16.10;14.60;;;5.30;99.90;;;6.19;100.00;97778.78;5187269;28;20785;-67
2022/02/04 01:38:00;;;;;;;16.07;14.67;;;5.40;99.90;;;6.20;100.00;97780.53;5185026;28;20228;-67
2022/02/04 01:40:33;;;;;;;16.13;14.63;;;5.40;99.90;;;6.18;100.00;97782.09;5187323;28;20702;-67
2022/02/04 01:43:07;;;;;;;15.47;14.03;;;5.50;99.90;;;6.28;100.00;97783.63;5186851;28;20222;-67
2022/02/04 01:45:40;;;;;;;16.03;14.63;;;5.50;99.90;;;6.32;100.00;97776.34;5186719;28;20214;-67
2022/02/04 01:48:13;;;;;;;15.30;13.80;;;5.60;99.90;;;6.32;100.00;97781.44;5187310;28;20211;-67
2022/02/04 01:50:50;;;;;;;15.03;13.63;;;5.60;99.90;;;6.33;100.00;97782.31;5186845;28;20226;-67
2022/02/04 01:53:28;;;;;;;15.20;13.80;;;5.60;99.90;;;6.43;100.00;97768.63;5187437;28;20215;-67
2022/02/04 01:56:03;;;;;;;13.77;12.47;;;5.70;99.90;;;6.44;100.00;97770.38;5179156;28;20226;-67
2022/02/04 01:58:38;;;;;;;13.60;12.30;;;5.70;99.90;;;6.46;100.00;97773.91;5187226;28;20597;-67
2022/02/04 02:01:11;;;;;;;13.10;11.83;;;5.70;99.90;;;6.44;100.00;97773.81;5186798;28;20232;-67
2022/02/04 02:03:45;;;;;;;12.30;11.20;;;5.70;99.90;;;6.45;100.00;97772.16;5192495;28;20320;-66
2022/02/04 02:06:51;;;;;;;12.73;11.53;;;5.70;99.90;;;6.61;100.00;97769.94;5187107;28;20222;-67
2022/02/04 02:09:30;;;;;;;12.20;11.10;;;5.80;99.90;;;6.56;100.00;97762.75;5185452;28;20655;-67
2022/02/04 02:12:07;;;;;;;11.37;10.37;;;5.80;99.90;;;6.73;98.56;97764.84;5186233;28;20226;-67
2022/02/04 02:14:40;;;;;;;10.67;9.77;;;5.80;99.90;;;6.61;99.15;97764.84;5185025;28;20245;-66
2022/02/04 02:46:07;;;;;;;9.73;8.83;;;5.90;99.90;;;6.76;98.08;97777.75;5181661;28;20234;-68
2022/02/04 02:49:03;;;;;;;10.27;9.37;;;5.90;99.90;;;6.75;97.80;97776.88;5185561;28;20685;-67
2022/02/04 02:51:53;;;;;;;10.10;9.20;;;5.90;99.90;;;6.67;98.35;97782.19;5180703;28;20245;-67
2022/02/04 02:54:54;;;;;;;9.50;8.57;;;5.90;99.90;;;6.64;98.67;97780.31;5179344;28;20248;-67
2022/02/04 03:00:44;;;;;;;10.57;9.47;;;5.90;99.90;;;6.61;98.93;97772.47;5246730;28;20587;-67
2022/02/04 03:03:20;;;;;;;10.23;9.33;;;5.90;99.90;;;6.57;99.54;97775.56;5229999;28;20299;-68
2022/02/04 03:05:53;;;;;;;9.80;8.83;;;5.90;99.90;;;6.59;99.42;97776.56;5243971;28;20220;-67
2022/02/04 03:08:27;;;;;;;9.37;8.60;;;5.90;99.90;;;6.77;97.87;97777.84;5247445;28;20311;-67
2022/02/04 03:11:00;;;;;;;9.47;8.67;;;5.80;99.90;;;6.66;98.68;97776.19;5244483;28;20220;-67
2022/02/04 03:13:35;;;;;;;9.33;8.53;;;5.80;99.90;;;6.59;99.43;97778.22;5247360;28;20600;-67
2022/02/04 03:16:10;;;;;;;9.07;8.17;;;5.80;99.90;;;6.59;99.81;97780.75;5246771;28;20239;-67
2022/02/04 03:18:48;;;;;;;10.10;9.23;;;5.80;99.90;;;6.53;100.00;97786.28;5246800;28;20223;-67
2022/02/04 03:21:26;;;;;;;9.47;8.67;;;5.80;99.90;;;6.51;100.00;97782.75;5245326;28;20267;-68
2022/02/04 03:24:03;;;;;;;9.53;8.63;;;5.80;99.90;;;6.49;100.00;97785.16;5231227;28;20588;-67
2022/02/04 03:26:45;;;;;;;9.87;8.97;;;5.80;99.90;;;6.50;100.00;97786.06;5244347;28;20240;-67
2022/02/04 03:29:26;;;;;;;10.00;9.10;;;5.80;99.90;;;6.52;100.00;97787.03;5239425;28;20220;-68
2022/02/04 03:32:03;;;;;;;9.60;8.70;;;5.80;99.90;;;6.53;100.00;97793.91;5246368;28;20212;-68
2022/02/04 03:34:37;;;;;;;9.90;9.00;;;5.80;99.90;;;6.54;100.00;97783.84;5240375;28;20220;-67
2022/02/04 03:37:10;;;;;;;10.33;9.33;;;5.80;99.90;;;6.51;100.00;97793.78;5245021;28;20219;-67
2022/02/04 03:39:43;;;;;;;10.13;9.13;;;5.70;99.90;;;6.53;100.00;97791.34;5246280;28;20231;-67
2022/02/04 03:42:16;;;;;;;9.83;8.93;;;5.70;99.90;;;6.49;100.00;97796.97;5245982;28;20219;-67
2022/02/04 03:44:50;;;;;;;10.93;9.57;;;5.70;99.90;;;6.48;100.00;97797.75;5245545;28;20226;-67
2022/02/04 03:47:24;;;;;;;9.80;8.90;;;5.70;99.90;;;6.46;100.00;97804.38;5246082;28;20602;-67
2022/02/04 03:49:57;;;;;;;9.70;8.80;;;5.70;99.90;;;6.38;100.00;97798.75;5246196;28;20216;-68
2022/02/04 03:52:30;;;;;;;9.67;8.77;;;5.70;99.90;;;6.46;100.00;97805.25;5246355;28;20221;-68
2022/02/04 03:55:04;;;;;;;8.87;8.07;;;5.70;99.90;;;6.52;100.00;97799.72;5246123;28;20224;-68
2022/02/04 03:57:38;;;;;;;8.83;8.10;;;5.70;99.90;;;6.51;100.00;97808.13;5230421;28;20233;-68
2022/02/04 04:00:17;;;;;;;9.20;8.17;;;5.70;99.90;;;6.46;100.00;97812.88;5238696;28;20220;-68
2022/02/04 04:02:50;;;;;;;9.20;8.30;;;5.70;99.90;;;6.43;100.00;97814.31;5236959;28;20216;-67
2022/02/04 04:05:23;;;;;;;9.30;8.47;;;5.60;99.90;;;6.50;100.00;97808.91;5245390;28;20216;-68
2022/02/04 04:07:57;;;;;;;9.30;8.40;;;5.60;99.90;;;6.48;100.00;97823.16;5243598;28;20348;-68
2022/02/04 04:10:37;;;;;;;9.00;8.10;;;5.70;99.90;;;6.43;100.00;97820.25;5239437;28;20228;-67
2022/02/04 04:13:12;;;;;;;9.07;8.17;;;5.60;99.90;;;6.45;100.00;97818.72;5240954;28;20759;-67
2022/02/04 04:15:47;;;;;;;9.67;8.77;;;5.70;99.90;;;6.38;100.00;97815.63;5244573;28;20231;-67
2022/02/04 04:18:20;;;;;;;9.23;8.33;;;5.60;99.90;;;6.31;100.00;97815.19;5239841;28;20219;-67
2022/02/04 04:20:54;;;;;;;10.53;9.53;;;5.60;99.90;;;6.35;100.00;97810.31;5234250;28;20265;-67
2022/02/04 04:23:27;;;;;;;9.93;8.93;;;5.60;99.90;;;6.34;100.00;97804.38;5232708;28;20221;-67
2022/02/04 04:26:00;;;;;;;10.23;9.33;;;5.60;99.90;;;6.42;100.00;97810.00;5238836;28;20229;-67
2022/02/04 04:28:34;;;;;;;10.30;9.23;;;5.60;99.90;;;6.43;100.00;97809.22;5244272;28;20224;-67
2022/02/04 04:31:09;;;;;;;9.93;9.03;;;5.60;99.90;;;6.37;100.00;97821.47;5243217;28;20216;-67
2022/02/04 04:33:42;;;;;;;10.80;9.80;;;5.60;99.90;;;6.42;100.00;97815.09;5244167;28;20226;-67
2022/02/04 04:36:17;;;;;;;10.57;9.63;;;5.60;99.90;;;6.44;100.00;97823.69;5244177;28;20226;-67
2022/02/04 04:38:55;;;;;;;10.33;9.33;;;5.70;99.90;;;6.53;100.00;97821.81;5236473;28;20224;-67
2022/02/04 04:41:38;;;;;;;10.60;9.60;;;5.70;99.90;;;6.51;100.00;97818.28;5245326;28;20220;-67
2022/02/04 05:30:17;;;;;;;11.93;10.77;;;5.60;99.90;;;6.43;100.00;97844.78;5234882;28;20271;-66
2022/02/04 05:32:50;;;;;;;12.07;10.87;;;5.60;99.90;;;6.45;100.00;97850.84;5239170;28;20220;-68
2022/02/04 05:35:25;;;;;;;12.80;11.50;;;5.60;99.90;;;6.41;100.00;97836.16;5234826;28;20247;-70
2022/02/04 05:38:00;;;;;;;13.60;12.20;;;5.60;99.90;;;6.39;100.00;97847.88;5229302;28;20228;-70
2022/02/04 05:40:39;;;;;;;13.80;12.40;;;5.60;99.90;;;6.38;100.00;97838.47;5247531;28;20227;-71
2022/02/04 05:43:20;;;;;;;13.70;12.40;;;5.60;99.90;;;6.46;100.00;97838.25;5249622;28;20230;-70
2022/02/04 05:45:59;;;;;;;14.33;12.90;;;5.60;99.90;;;6.45;100.00;97840.69;5241543;28;20223;-71
2022/02/04 05:48:35;;;;;;;13.73;12.43;;;5.60;99.90;;;6.41;100.00;97843.75;5238323;28;20575;-70
2022/02/04 05:51:27;;;;;;;14.30;12.27;;;5.60;99.90;;;6.35;100.00;97838.25;5249281;28;20466;-69
2022/02/04 05:54:08;;;;;;;14.83;13.37;;;5.60;99.90;;;6.34;100.00;97844.09;5251322;28;20220;-68
2022/02/04 05:56:50;;;;;;;14.23;12.93;;;5.60;99.90;;;6.31;100.00;97849.84;5248901;28;20224;-68
2022/02/04 05:59:31;;;;;;;15.23;13.73;;;5.50;99.90;;;6.32;100.00;97846.53;5239597;28;20235;-70
2022/02/04 06:02:12;;;;;;;15.00;13.53;;;5.60;99.90;;;6.29;100.00;97848.84;5229156;28;20232;-69
2022/02/04 06:04:53;;;;;;;16.30;14.60;;;5.60;99.90;;;6.24;100.00;97845.97;5229189;28;20791;-69
2022/02/04 06:07:37;;;;;;;16.07;14.47;;;5.50;99.90;;;6.25;100.00;97854.47;5228390;28;20248;-69
2022/02/04 06:10:32;;;;;;;15.37;13.90;;;5.50;99.90;;;6.20;100.00;97863.41;5240402;28;20702;-70
2022/02/04 06:13:27;;;;;;;16.27;14.63;;;5.40;99.90;;;6.16;100.00;97864.84;5248866;28;20228;-69
2022/02/04 06:24:28;;;;;;;17.60;15.70;;;5.40;99.90;;;6.08;100.00;97873.53;5229825;28;20219;-69
2022/02/04 06:27:03;;;;;;;17.47;15.80;;;5.40;99.90;;;6.12;100.00;97875.50;5247052;28;20251;-70
2022/02/04 06:29:37;;;;;;;16.23;14.53;;;5.30;99.90;;;6.11;100.00;97870.34;5245605;28;20228;-69
2022/02/04 06:32:13;;;;;;;17.00;15.40;;;5.30;99.90;;;6.05;100.00;97871.63;5245469;28;20232;-69
2022/02/04 06:34:48;;;;;;;16.70;15.10;;;5.20;99.90;;;6.01;100.00;97873.81;5229845;28;20216;-69
2022/02/04 06:37:21;;;;;;;18.10;16.27;;;5.20;99.90;;;5.90;100.00;97874.66;5227840;28;20225;-69
2022/02/04 06:39:54;;;;;;;18.07;16.33;;;5.30;99.90;;;5.90;100.00;97869.59;5234531;28;20721;-70
2022/02/04 06:42:30;;;;;;;17.37;15.57;;;5.20;99.90;;;5.85;100.00;97880.25;5242303;28;20735;-67
2022/02/04 06:45:05;;;;;;;16.90;15.10;;;5.20;99.90;;;5.82;100.00;97882.56;5228925;28;20220;-70
2022/02/04 06:47:38;;;;;;;18.23;16.33;;;5.20;99.90;;;5.85;100.00;97881.91;5247810;28;20224;-70
2022/02/04 06:50:11;;;;;;;17.70;16.00;;;5.20;99.90;;;5.85;100.00;97882.78;5259334;28;20224;-69
2022/02/04 06:52:45;;;;;;;16.63;14.93;;;5.10;99.90;;;5.88;100.00;97885.56;5246831;28;20220;-71
2022/02/04 06:55:18;;;;;;;17.30;15.50;;;5.20;99.90;;;5.90;100.00;97897.50;5248792;28;20232;-70
2022/02/04 06:57:54;;;;;;;17.77;16.17;;;5.10;99.90;;;5.86;100.00;97901.44;5248432;28;20259;-71
2022/02/04 07:00:28;;;;;;;18.13;16.33;;;5.20;99.90;;;5.84;100.00;97898.78;5248312;28;20239;-70
2022/02/04 07:03:01;;;;;;;19.20;17.20;;;5.20;99.90;;;5.80;100.00;97899.31;5248609;28;20226;-71
2022/02/04 07:05:40;;;;;;;16.53;14.87;;;5.20;99.90;;;5.79;100.00;97901.75;5248353;28;20267;-71
2022/02/04 07:08:21;;;;;;;19.77;16.37;;;5.20;99.90;;;5.84;100.00;97901.31;5233998;28;20224;-71
2022/02/04 07:11:11;;;;;;;18.37;16.50;;;5.20;99.90;;;5.91;100.00;97894.19;5249969;28;20209;-71
2022/02/04 07:14:02;;;;;;;16.93;15.07;;;5.20;99.90;;;5.92;100.00;97893.41;5247123;28;20236;-71
2022/02/04 07:16:40;;;;;;;18.33;15.83;;;5.20;99.90;;;5.97;100.00;97897.19;5247381;28;20597;-71
2022/02/04 07:22:04;;;;;;;16.27;14.67;;;5.20;99.90;;;5.87;100.00;97895.59;5238225;28;20348;-71
2022/02/04 07:24:37;;;;;;;17.87;16.03;;;5.20;99.90;;;5.88;100.00;97898.25;5239205;28;20231;-71
2022/02/04 07:27:10;;;;;;;17.77;16.07;;;5.20;99.90;;;5.92;100.00;97894.28;5247247;28;20236;-71
2022/02/04 07:29:47;;;;;;;17.67;15.90;;;5.20;99.90;;;5.88;100.00;97894.81;5243112;28;20228;-71
2022/02/04 07:32:26;;;;;;;20.73;17.90;;;5.20;99.90;;;5.94;100.00;97899.50;5231735;28;20221;-71
2022/02/04 07:35:16;;;;;;;19.57;17.43;;;5.30;99.90;;;5.94;100.00;97897.84;5238247;28;20226;-71
2022/02/04 07:40:54;;;;;;;18.23;16.43;;;5.20;99.90;;;5.92;100.00;97898.47;5241360;28;20237;-71
2022/02/04 07:43:28;;;;;;;17.40;15.53;;;5.20;99.90;;;5.95;100.00;97901.28;5237998;28;20225;-72
2022/02/04 07:46:02;;;;;;;17.90;16.03;;;5.20;99.90;;;5.94;100.00;97897.84;5227224;28;20224;-71
2022/02/04 07:48:36;;;;;;;18.00;16.10;;;5.20;99.90;;;5.99;100.00;97894.00;5227328;28;20227;-72
2022/02/04 07:51:09;;;;;;;20.77;16.70;;;5.20;99.90;;;5.97;100.00;97897.19;5225937;28;20229;-71
2022/02/04 07:53:43;;;;;;;22.17;16.30;;;5.20;99.90;;;5.98;100.00;97898.97;5244110;28;20224;-71
2022/02/04 07:56:20;;;;;;;18.07;15.97;;;5.20;99.90;;;5.99;100.00;97901.63;5246159;28;20240;-72
2022/02/04 07:58:59;;;;;;;21.07;15.83;;;5.30;99.90;;;6.09;100.00;97901.56;5243065;28;20228;-71
2022/02/04 08:01:34;;;;;;;17.77;15.90;;;5.30;99.90;;;6.14;100.00;97901.88;5244557;28;20599;-72
2022/02/04 08:04:13;;;;;;;16.13;14.43;;;5.30;99.90;;;6.12;100.00;97894.94;5226664;28;20225;-71
2022/02/04 08:06:52;;;;;;;15.53;14.03;;;5.30;99.90;;;6.13;100.00;97909.41;5240068;28;20224;-71
2022/02/04 08:09:34;;;;;;;13.80;12.50;;;5.40;99.90;;;6.10;100.00;97910.06;5244084;28;20216;-71
2022/02/04 08:12:34;;;;;;;13.30;12.10;;;5.30;99.90;;;6.14;100.00;97912.03;5229660;28;20722;-71
2022/02/04 08:15:21;;;;;;;13.93;12.53;;;5.30;99.90;;;6.15;100.00;97903.63;5238659;28;20235;-71
2022/02/04 08:18:17;;;;;;;13.07;11.80;;;5.30;99.90;;;6.11;100.00;97901.66;5226048;28;20225;-71
2022/02/04 08:24:03;;;;;;;12.97;11.70;;;5.40;99.90;;;6.09;100.00;97899.03;5243882;28;20230;-71
2022/02/04 08:29:47;;;;;;;14.37;12.97;;;5.30;99.90;;;6.13;100.00;97900.13;5229797;28;20256;-72
2022/02/04 08:32:38;;;;;;;13.87;12.50;;;5.40;99.90;;;6.11;100.00;97906.72;5245988;28;20607;-71
2022/02/04 08:35:31;;;;;;;13.83;12.50;;;5.40;99.90;;;6.11;100.00;97904.19;5227729;28;20240;-71
2022/02/04 08:38:33;;;;;;;14.23;12.73;;;5.40;99.90;;;6.18;100.00;97903.91;5226039;28;20240;-71
2022/02/04 08:47:03;;;;;;;16.37;14.67;;;5.50;99.90;;;6.25;100.00;97890.88;5240655;28;20228;-70
2022/02/04 08:49:58;;;;;;;16.93;15.13;;;5.60;99.90;;;6.32;100.00;97893.13;5236192;28;20692;-71
2022/02/04 08:55:24;;;;;;;14.90;13.53;;;5.60;99.90;;;6.37;100.00;97869.72;5243995;28;20564;-70
2022/02/04 08:58:07;;;;;;;14.93;13.50;;;5.60;99.90;;;6.30;100.00;97874.34;5239961;28;20232;-70
2022/02/04 09:00:42;;;;;;;15.13;13.73;;;5.60;99.90;;;6.32;100.00;97882.97;5245647;28;20263;-70
2022/02/04 09:03:27;;;;;;;14.83;13.37;;;5.70;99.90;;;6.39;100.00;97879.22;5246127;28;20585;-70
2022/02/04 09:06:22;;;;;;;17.00;15.20;;;5.80;99.90;;;6.39;100.00;97870.72;5245835;28;20315;-70
2022/02/04 09:08:59;;;;;;;18.17;16.27;;;5.90;99.90;;;6.44;100.00;97869.38;5245930;28;20224;-71
2022/02/04 09:11:42;;;;;;;19.83;16.60;;;5.90;99.90;;;6.57;100.00;97869.50;5243979;28;20242;-70
2022/02/04 09:17:34;;;;;;;17.60;15.80;;;6.30;99.90;;;6.74;100.00;97875.81;5199127;28;20594;-70
2022/02/04 09:20:21;;;;;;;15.97;14.37;;;6.30;99.90;;;6.81;100.00;97879.66;5241719;28;20221;-70
2022/02/04 09:22:55;;;;;;;15.83;14.23;;;6.40;99.90;;;6.92;100.00;97878.75;5245094;28;20696;-70
2022/02/04 09:25:29;;;;;;;17.83;15.93;;;6.50;99.90;;;7.16;100.00;97880.50;5245666;28;20224;-70
2022/02/04 09:28:03;;;;;;;15.00;13.60;;;6.60;99.90;;;7.36;100.00;97865.78;5245521;28;20688;-70
2022/02/04 09:30:36;;;;;;;15.73;13.90;;;6.70;99.90;;;7.54;100.00;97874.66;5239075;28;20224;-70
2022/02/04 09:33:12;;;;;;;13.50;12.30;;;6.90;99.90;;;7.80;100.00;97866.25;5239366;28;20221;-70
2022/02/04 09:35:45;;;;;;;14.47;13.07;;;7.10;99.90;;;8.12;100.00;97858.22;5235010;28;20216;-70
2022/02/04 09:38:18;;;;;;;12.73;11.43;;;7.40;99.90;;;8.25;100.00;97864.16;5228761;28;20225;-69
2022/02/04 09:40:57;;;;;;;11.97;10.77;;;7.60;99.90;;;8.31;100.00;97856.91;5228652;28;20267;-69
2022/02/04 09:43:31;;;;;;;11.10;10.20;;;7.80;99.90;;;8.42;100.00;97860.19;5249127;28;20235;-69
2022/02/04 09:46:07;;;;;;;10.67;9.77;;;7.80;99.90;;;8.28;97.24;97856.72;5252204;28;20247;-69
2022/02/04 09:48:42;;;;;;;11.40;10.40;;;7.70;99.90;;;8.28;98.98;97851.63;5249377;28;20227;-70
2022/02/04 09:51:18;;;;;;;11.67;10.67;;;7.70;99.90;;;8.32;98.27;97846.81;5249010;28;20688;-69
2022/02/04 10:09:04;;;;;;;9.77;8.13;;;7.20;99.90;;;7.85;98.00;97846.22;5204788;28;20229;-70
2022/02/04 10:14:58;;;;;;;7.37;6.77;;;7.10;99.90;;;7.91;98.54;97841.53;5242051;28;20225;-70
2022/02/04 10:17:38;;;;;;;7.13;6.53;;;7.10;99.90;;;8.01;97.81;97831.22;5236198;28;20243;-70
2022/02/04 10:20:14;;;;;;;7.27;6.60;;;7.20;99.90;;;7.98;96.14;97830.97;5248356;28;20224;-70
2022/02/04 10:22:50;;;;;;;6.47;5.87;;;7.30;99.90;;;8.11;97.13;97835.22;5248444;28;20315;-69
2022/02/04 10:25:31;;;;;;;6.50;5.93;;;7.40;99.90;;;8.35;97.01;97825.75;5248839;28;20224;-69
2022/02/04 10:28:24;;;;;;;6.87;6.27;;;7.80;99.90;;;8.60;94.98;97817.19;5248491;28;20672;-69
2022/02/04 10:31:07;;;;;;;5.67;5.17;;;8.00;99.90;;;8.75;96.01;97828.34;5246004;28;20362;-70
2022/02/04 10:33:57;;;;;;;5.10;4.73;;;8.10;99.90;;;8.68;90.24;97828.75;5248099;28;20216;-69
2022/02/04 10:36:48;;;;;;;5.07;4.67;;;8.00;99.90;;;8.67;92.04;97824.44;5248386;28;20224;-70
2022/02/04 10:39:45;;;;;;;4.77;4.43;;;7.90;99.90;;;8.48;88.80;97818.16;5247662;28;20224;-70
2022/02/04 10:42:29;;;;;;;5.63;5.17;;;7.80;99.90;;;8.53;92.66;97821.91;5238993;28;20228;-69
2022/02/04 10:45:24;;;;;;;5.37;4.97;;;7.70;99.90;;;8.43;90.81;97816.13;5246591;28;20227;-69
2022/02/04 10:54:06;;;;;;;4.90;4.53;;;7.50;99.90;;;8.22;94.04;97806.28;5247503;28;20216;-69
2022/02/04 10:59:39;;;;;;;4.53;4.23;;;7.40;99.90;;;8.16;95.55;97794.81;5246807;28;20303;-69
2022/02/04 11:02:33;;;;;;;4.97;4.57;;;7.40;99.90;;;8.18;96.04;97795.78;5247050;28;20228;-69
2022/02/04 11:05:20;;;;;;;5.20;4.80;;;7.40;99.90;;;8.30;95.86;97786.41;5247462;28;20227;-69
2022/02/04 11:08:13;;;;;;;5.77;5.30;;;7.40;99.90;;;8.37;94.73;97783.47;5245938;28;20219;-69
2022/02/04 11:31:20;;;;;;;4.73;4.33;;;7.50;99.90;;;8.26;87.28;97764.06;5202023;28;20225;-69
2022/02/04 11:34:14;;;;;;;4.80;4.43;;;7.50;99.90;;;8.26;88.03;97769.16;5225308;28;20213;-70
2022/02/04 11:52:05;;;;;;;4.57;4.27;;;7.60;99.90;;;8.38;84.47;97743.59;5237538;28;20224;-70
2022/02/04 11:54:43;;;;;;;4.23;3.83;;;7.60;99.90;;;8.40;85.33;97742.94;5224530;28;20222;-70
2022/02/04 11:57:22;;;;;;;4.73;4.33;;;7.60;99.90;;;8.41;83.98;97736.16;5221364;28;20213;-70
2022/02/04 12:00:01;;;;;;;4.53;4.13;;;7.60;99.90;;;8.30;85.59;97731.25;5217598;28;20223;-70
2022/02/04 12:02:40;;;;;;;4.30;4.00;;;7.50;99.90;;;8.17;83.08;97730.38;5221988;28;20247;-70
2022/02/04 12:05:33;;;;;;;4.20;3.90;;;7.40;99.90;;;8.20;84.49;97730.56;5222668;28;20221;-69
2022/02/04 12:08:20;;;;;;;4.30;4.00;;;7.40;99.90;;;8.23;84.64;97720.59;5242250;28;20607;-70
2022/02/04 12:11:11;;;;;;;3.97;3.77;;;7.40;99.90;;;8.37;82.80;97721.47;5224585;28;20228;-69
2022/02/04 12:14:10;;;;;;;4.30;3.93;;;7.50;99.90;;;8.34;83.39;97723.03;5221259;28;20237;-69
2022/02/04 12:17:07;;;;;;;3.53;3.33;;;7.40;99.90;;;8.23;82.65;97708.72;5221622;28;20230;-69
2022/02/04 12:19:43;;;;;;;3.93;3.67;;;7.50;99.90;;;8.39;83.02;97703.00;5221339;28;20231;-69
2022/02/04 12:22:53;;;;;;;3.63;3.43;;;7.60;99.90;;;8.40;82.56;97702.19;5221894;28;20252;-70
2022/02/04 12:25:55;;;;;;;3.47;3.23;;;7.60;99.90;;;8.45;81.80;97695.72;5206764;28;20217;-67
2022/02/04 12:28:37;;;;;;;3.40;3.20;;;7.70;99.90;;;8.56;81.60;97694.72;5207957;28;20237;-69
2022/02/04 12:31:13;;;;;;;3.53;3.33;;;7.70;99.90;;;8.61;82.13;97695.00;5196937;28;20597;-69
2022/02/04 12:33:49;;;;;;;3.73;3.53;;;7.80;99.90;;;8.62;81.04;97694.22;5193534;28;20234;-67
2022/02/04 12:36:25;;;;;;;3.40;3.10;;;7.90;99.90;;;8.71;80.09;97688.81;5187055;28;20234;-67
2022/02/04 12:39:04;;;;;;;2.93;2.73;;;7.90;99.90;;;8.70;79.76;97676.84;5198780;28;20222;-70
2022/02/04 12:41:41;;;;;;;2.70;2.50;;;8.00;99.90;;;8.71;78.34;97673.53;5207479;28;20226;-69
2022/02/04 12:44:16;;;;;;;2.85;2.65;;;7.90;99.90;;;8.72;78.80;97672.72;5208173;28;20222;-70
2022/02/04 12:46:53;;;;;;;2.40;2.20;;;8.00;99.90;;;8.81;77.13;97675.84;5194276;28;20308;-70
2022/02/04 12:49:30;;;;;;;2.23;2.10;;;8.00;99.90;;;8.71;78.40;97671.84;5207012;28;20225;-69
2022/02/04 12:52:16;;;;;;;2.70;2.50;;;8.00;99.90;;;8.82;76.36;97664.88;5205242;28;20229;-69
2022/02/04 12:54:54;;;;;;;2.60;2.50;;;8.00;99.90;;;8.83;76.68;97658.97;5198082;28;20232;-69
2022/02/04 12:57:33;;;;;;;2.30;2.20;;;8.00;99.90;;;8.75;78.59;97660.16;5204366;28;20304;-67
2022/02/04 13:00:32;;;;;;;2.70;2.60;;;7.90;99.90;;;8.75;78.00;97658.50;5206516;28;20225;-67
2022/02/04 13:03:10;;;;;;;2.67;2.47;;;7.80;99.90;;;8.74;79.36;97658.44;5206521;28;20439;-67
2022/02/04 13:08:41;;;;;;;3.17;2.50;;;7.80;99.90;;;8.77;78.17;97643.31;5206683;28;20597;-67
2022/02/04 13:11:18;;;;;;;2.13;2.03;;;7.80;99.90;;;8.81;77.94;97647.81;5216585;28;20232;-67
2022/02/04 13:13:57;;;;;;;2.80;2.60;;;7.80;99.90;;;8.94;76.83;97646.88;5227045;28;20228;-67
2022/02/04 13:16:33;;;;;;;2.40;2.20;;;7.80;99.90;;;8.85;76.78;97631.91;5227289;28;20311;-68
2022/02/04 13:19:06;;;;;;;2.53;2.43;;;7.80;99.90;;;8.83;74.88;97623.28;5208144;28;20252;-67
2022/02/04 13:21:40;;;;;;;2.22;2.13;;;7.90;99.90;;;8.84;73.66;97624.16;5206067;28;20317;-67
2022/02/04 13:24:16;;;;;;;2.33;2.17;;;7.90;99.90;;;8.89;74.06;97623.66;5206631;28;20229;-70
2022/02/04 13:26:51;;;;;;;2.60;2.40;;;7.90;99.90;;;8.94;73.12;97621.41;5206659;28;20229;-69
2022/02/04 13:29:26;;;;;;;2.47;2.38;;;8.00;99.90;;;8.96;72.76;97620.69;5207721;28;20586;-69
2022/02/04 13:31:59;;;;;;;2.37;2.27;;;8.10;99.90;;;9.01;72.29;97623.50;5223101;28;20221;-68
2022/02/04 13:34:33;;;;;;;2.78;2.58;;;8.10;99.90;;;9.03;73.17;97611.72;5205146;28;20237;-68
2022/02/04 13:37:13;;;;;;;4.10;3.70;;;8.10;99.90;;;8.95;72.78;97611.28;5203759;28;20712;-68
2022/02/04 13:39:55;;;;;;;3.22;3.03;;;8.10;99.90;;;8.99;72.18;97608.13;5205300;28;20230;-66
2022/02/04 13:42:38;;;;;;;3.30;3.10;;;8.10;99.90;;;9.01;73.29;97609.13;5204999;28;20256;-67
2022/02/04 13:45:27;;;;;;;3.20;2.90;;;8.00;99.90;;;9.02;72.85;97610.00;5205300;28;20221;-68
2022/02/04 13:48:05;;;;;;;2.63;2.53;;;8.00;99.90;;;8.95;71.55;97598.53;5204918;28;20226;-69
2022/02/04 13:50:47;;;;;;;2.45;2.25;;;8.00;99.90;;;8.89;71.61;97603.28;5205157;28;20222;-69
2022/02/04 13:53:31;;;;;;;3.00;2.80;;;8.00;99.90;;;8.87;71.54;97594.69;5204219;28;20724;-67
2022/02/04 13:56:17;;;;;;;2.77;2.63;;;8.00;99.90;;;8.80;72.92;97593.41;5206577;28;20594;-66
2022/02/04 13:58:55;;;;;;;2.43;2.33;;;7.80;99.90;;;8.85;71.98;97595.38;5205214;28;20597;-67
2022/02/04 14:01:35;;;;;;;2.50;2.30;;;7.80;99.90;;;8.77;72.60;97598.31;5205982;28;20230;-69
2022/02/04 14:04:11;;;;;;;2.90;2.70;;;7.90;99.90;;;8.67;73.20;97596.03;5203807;28;20213;-69
2022/02/04 14:06:44;;;;;;;2.63;2.47;;;7.80;99.90;;;8.71;72.77;97599.63;5204217;28;20225;-68
2022/02/04 14:09:22;;;;;;;3.10;2.90;;;7.70;99.90;;;8.64;72.57;97605.13;5204849;28;20232;-68
2022/02/04 14:11:55;;;;;;;3.58;3.25;;;7.70;99.90;;;8.66;73.25;97609.53;5204141;28;20229;-68
2022/02/04 14:14:29;;;;;;;7.82;5.68;;;7.60;99.90;;;8.60;74.23;97613.41;5202407;28;20240;-67
2022/02/04 14:17:06;;;;;;;4.77;4.37;;;7.70;99.90;;;8.48;74.51;97614.41;5203349;28;20217;-69
2022/02/04 14:19:39;;;;;;;4.33;4.03;;;7.60;99.90;;;8.44;74.96;97621.75;5200422;28;20221;-66
2022/02/04 14:22:12;;;;;;;3.53;3.30;;;7.50;99.90;;;8.42;74.88;97620.81;5201565;28;20614;-69
2022/02/04 14:24:45;;;;;;;6.87;5.83;;;7.50;99.90;;;8.52;74.88;97618.03;5203661;28;20230;-67
2022/02/04 14:27:19;;;;;;;7.30;6.23;;;7.50;99.90;;;8.44;74.97;97617.56;5204736;28;20221;-69
2022/02/04 14:29:59;;;;;;;10.75;8.15;;;7.50;99.90;;;8.57;73.84;97620.06;5201510;28;20225;-66
2022/02/04 14:32:44;;;;;;;9.93;7.30;;;7.50;99.90;;;8.49;73.09;97617.84;5196949;28;20236;-67
2022/02/04 14:35:26;;;;;;;9.53;7.60;;;7.50;99.90;;;8.38;72.67;97606.06;5204870;28;20256;-66
2022/02/04 14:49:37;;;;;;;2.60;2.50;;;7.50;99.90;;;8.27;71.78;97593.59;5204093;28;20218;-67
2022/02/04 14:52:36;;;;;;;2.70;2.60;;;7.50;99.90;;;8.25;72.43;97595.16;5204088;28;20587;-69
2022/02/04 15:00:53;;;;;;;3.13;2.93;;;7.30;99.90;;;8.24;73.94;97597.59;5201947;28;20230;-68
2022/02/04 15:03:31;;;;;;;3.03;2.83;;;7.30;99.90;;;8.12;73.36;97608.75;5204619;28;20622;-68
2022/02/04 15:06:10;;;;;;;3.10;2.90;;;7.30;99.90;;;8.21;72.24;97599.94;5205127;28;20229;-68
2022/02/04 15:09:08;;;;;;;3.10;2.90;;;7.30;99.90;;;8.15;71.59;97591.94;5205541;28;20225;-68
2022/02/04 15:11:44;;;;;;;3.00;2.90;;;7.20;99.90;;;8.06;71.32;97582.94;5202333;28;20230;-69